sensor_id;sensor_type;location;lat;lon;timestamp;P1;durP1;ratioP1;P2;durP2;ratioP2
42964;SDS011;28604;51.204;22.552;2022-11-04T00:01:21;21.15;;;9.07;;
42964;SDS011;28604;51.204;22.552;2022-11-04T00:03:48;23.88;;;9.52;;
42964;SDS011;28604;51.204;22.552;2022-11-04T00:06:14;21.25;;;9.50;;
42964;SDS011;28604;51.204;22.552;2022-11-04T00:08:40;20.85;;;9.13;;
42964;SDS011;28604;51.204;22.552;2022-11-04T00:11:06;22.92;;;8.95;;
42964;SDS011;28604;51.204;22.552;2022-11-04T00:13:53;20.75;;;7.95;;
42964;SDS011;28604;51.204;22.552;2022-11-04T00:16:19;25.05;;;8.40;;
42964;SDS011;28604;51.204;22.552;2022-11-04T00:19:03;20.48;;;9.52;;
42964;SDS011;28604;51.204;22.552;2022-11-04T00:21:29;21.02;;;8.38;;
42964;SDS011;28604;51.204;22.552;2022-11-04T00:24:14;21.60;;;8.95;;
42964;SDS011;28604;51.204;22.552;2022-11-04T00:26:58;18.48;;;8.18;;
42964;SDS011;28604;51.204;22.552;2022-11-04T00:29:43;18.25;;;8.57;;
42964;SDS011;28604;51.204;22.552;2022-11-04T00:32:09;19.98;;;8.55;;
42964;SDS011;28604;51.204;22.552;2022-11-04T00:34:53;18.58;;;7.43;;
42964;SDS011;28604;51.204;22.552;2022-11-04T00:37:19;14.35;;;7.70;;
42964;SDS011;28604;51.204;22.552;2022-11-04T00:39:45;14.05;;;7.22;;
42964;SDS011;28604;51.204;22.552;2022-11-04T00:42:11;21.13;;;8.27;;
42964;SDS011;28604;51.204;22.552;2022-11-04T00:44:37;21.42;;;7.25;;
42964;SDS011;28604;51.204;22.552;2022-11-04T00:47:03;25.85;;;8.23;;
42964;SDS011;28604;51.204;22.552;2022-11-04T00:49:29;20.17;;;7.95;;
42964;SDS011;28604;51.204;22.552;2022-11-04T00:51:55;19.17;;;7.63;;
42964;SDS011;28604;51.204;22.552;2022-11-04T00:54:21;19.27;;;7.78;;
42964;SDS011;28604;51.204;22.552;2022-11-04T00:56:47;21.77;;;6.75;;
42964;SDS011;28604;51.204;22.552;2022-11-04T00:59:13;17.05;;;7.13;;
42964;SDS011;28604;51.204;22.552;2022-11-04T01:01:40;19.40;;;6.63;;
42964;SDS011;28604;51.204;22.552;2022-11-04T01:04:07;20.23;;;6.78;;
42964;SDS011;28604;51.204;22.552;2022-11-04T01:06:33;21.27;;;7.75;;
42964;SDS011;28604;51.204;22.552;2022-11-04T01:09:00;22.08;;;7.78;;
42964;SDS011;28604;51.204;22.552;2022-11-04T01:11:29;17.70;;;7.45;;
42964;SDS011;28604;51.204;22.552;2022-11-04T01:13:56;22.75;;;8.43;;
42964;SDS011;28604;51.204;22.552;2022-11-04T01:16:22;16.70;;;7.32;;
42964;SDS011;28604;51.204;22.552;2022-11-04T01:18:49;20.02;;;7.32;;
42964;SDS011;28604;51.204;22.552;2022-11-04T01:21:16;14.90;;;7.28;;
42964;SDS011;28604;51.204;22.552;2022-11-04T01:23:43;16.98;;;7.10;;
42964;SDS011;28604;51.204;22.552;2022-11-04T01:26:16;18.80;;;7.18;;
42964;SDS011;28604;51.204;22.552;2022-11-04T01:28:44;18.20;;;8.52;;
42964;SDS011;28604;51.204;22.552;2022-11-04T01:31:12;19.50;;;6.40;;
42964;SDS011;28604;51.204;22.552;2022-11-04T01:33:43;19.38;;;7.32;;
42964;SDS011;28604;51.204;22.552;2022-11-04T01:36:09;19.50;;;8.15;;
42964;SDS011;28604;51.204;22.552;2022-11-04T01:38:35;21.42;;;7.65;;
42964;SDS011;28604;51.204;22.552;2022-11-04T01:41:01;18.40;;;7.80;;
42964;SDS011;28604;51.204;22.552;2022-11-04T01:43:48;21.38;;;6.97;;
42964;SDS011;28604;51.204;22.552;2022-11-04T01:46:20;19.15;;;8.15;;
42964;SDS011;28604;51.204;22.552;2022-11-04T01:49:01;17.98;;;7.18;;
42964;SDS011;28604;51.204;22.552;2022-11-04T01:51:49;14.25;;;7.88;;
42964;SDS011;28604;51.204;22.552;2022-11-04T01:54:18;17.52;;;7.13;;
42964;SDS011;28604;51.204;22.552;2022-11-04T01:56:45;21.23;;;6.45;;
42964;SDS011;28604;51.204;22.552;2022-11-04T01:59:18;18.98;;;7.40;;
42964;SDS011;28604;51.204;22.552;2022-11-04T02:01:46;13.85;;;7.13;;
42964;SDS011;28604;51.204;22.552;2022-11-04T02:04:13;21.35;;;6.82;;
42964;SDS011;28604;51.204;22.552;2022-11-04T02:06:53;25.33;;;8.30;;
42964;SDS011;28604;51.204;22.552;2022-11-04T02:09:25;20.88;;;7.82;;
42964;SDS011;28604;51.204;22.552;2022-11-04T02:11:53;15.93;;;7.53;;
42964;SDS011;28604;51.204;22.552;2022-11-04T02:14:38;12.93;;;6.53;;
42964;SDS011;28604;51.204;22.552;2022-11-04T02:27:39;26.98;;;8.93;;
42964;SDS011;28604;51.204;22.552;2022-11-04T02:30:16;20.30;;;8.88;;
42964;SDS011;28604;51.204;22.552;2022-11-04T02:40:56;25.95;;;8.65;;
42964;SDS011;28604;51.204;22.552;2022-11-04T02:43:37;17.90;;;8.90;;
42964;SDS011;28604;51.204;22.552;2022-11-04T02:51:17;21.00;;;8.25;;
42964;SDS011;28604;51.204;22.552;2022-11-04T02:53:59;19.52;;;8.27;;
42964;SDS011;28604;51.204;22.552;2022-11-04T02:56:31;20.08;;;7.85;;
42964;SDS011;28604;51.204;22.552;2022-11-04T02:59:03;17.67;;;8.05;;
42964;SDS011;28604;51.204;22.552;2022-11-04T03:01:38;20.05;;;7.75;;
42964;SDS011;28604;51.204;22.552;2022-11-04T03:04:10;18.00;;;8.07;;
42964;SDS011;28604;51.204;22.552;2022-11-04T03:06:40;18.38;;;8.80;;
42964;SDS011;28604;51.204;22.552;2022-11-04T03:09:09;21.48;;;8.70;;
42964;SDS011;28604;51.204;22.552;2022-11-04T03:11:37;21.88;;;8.48;;
42964;SDS011;28604;51.204;22.552;2022-11-04T03:14:09;16.88;;;8.70;;
42964;SDS011;28604;51.204;22.552;2022-11-04T03:22:04;21.13;;;10.52;;
42964;SDS011;28604;51.204;22.552;2022-11-04T03:24:41;26.98;;;10.68;;
42964;SDS011;28604;51.204;22.552;2022-11-04T03:30:09;24.48;;;9.55;;
42964;SDS011;28604;51.204;22.552;2022-11-04T03:35:11;22.00;;;9.90;;
42964;SDS011;28604;51.204;22.552;2022-11-04T03:37:39;21.92;;;8.77;;
42964;SDS011;28604;51.204;22.552;2022-11-04T03:40:05;18.38;;;8.35;;
42964;SDS011;28604;51.204;22.552;2022-11-04T03:42:31;20.90;;;8.77;;
42964;SDS011;28604;51.204;22.552;2022-11-04T03:45:01;15.30;;;8.60;;
42964;SDS011;28604;51.204;22.552;2022-11-04T03:47:28;20.65;;;8.77;;
42964;SDS011;28604;51.204;22.552;2022-11-04T03:49:58;24.85;;;10.48;;
42964;SDS011;28604;51.204;22.552;2022-11-04T03:52:31;21.15;;;9.63;;
42964;SDS011;28604;51.204;22.552;2022-11-04T03:54:57;13.55;;;7.80;;
42964;SDS011;28604;51.204;22.552;2022-11-04T03:57:26;24.23;;;8.70;;
42964;SDS011;28604;51.204;22.552;2022-11-04T04:00:20;22.13;;;9.43;;
42964;SDS011;28604;51.204;22.552;2022-11-04T04:02:55;19.95;;;8.05;;
42964;SDS011;28604;51.204;22.552;2022-11-04T04:16:38;20.45;;;8.27;;
42964;SDS011;28604;51.204;22.552;2022-11-04T04:19:14;23.17;;;9.70;;
42964;SDS011;28604;51.204;22.552;2022-11-04T04:21:47;22.40;;;9.55;;
42964;SDS011;28604;51.204;22.552;2022-11-04T04:24:25;19.80;;;8.45;;
42964;SDS011;28604;51.204;22.552;2022-11-04T04:27:14;21.25;;;10.50;;
42964;SDS011;28604;51.204;22.552;2022-11-04T04:29:58;20.58;;;8.45;;
42964;SDS011;28604;51.204;22.552;2022-11-04T04:32:27;25.15;;;9.68;;
42964;SDS011;28604;51.204;22.552;2022-11-04T04:34:57;27.08;;;9.30;;
42964;SDS011;28604;51.204;22.552;2022-11-04T04:37:41;18.35;;;9.15;;
42964;SDS011;28604;51.204;22.552;2022-11-04T04:40:11;20.08;;;8.60;;
42964;SDS011;28604;51.204;22.552;2022-11-04T04:42:59;22.27;;;7.85;;
42964;SDS011;28604;51.204;22.552;2022-11-04T04:45:47;16.63;;;8.10;;
42964;SDS011;28604;51.204;22.552;2022-11-04T04:48:16;20.42;;;8.98;;
42964;SDS011;28604;51.204;22.552;2022-11-04T04:50:47;20.75;;;8.70;;
42964;SDS011;28604;51.204;22.552;2022-11-04T04:53:15;19.42;;;7.15;;
42964;SDS011;28604;51.204;22.552;2022-11-04T04:55:41;17.85;;;8.55;;
42964;SDS011;28604;51.204;22.552;2022-11-04T04:58:07;23.42;;;8.57;;
42964;SDS011;28604;51.204;22.552;2022-11-04T05:00:34;21.08;;;8.65;;
42964;SDS011;28604;51.204;22.552;2022-11-04T05:03:00;23.85;;;8.80;;
42964;SDS011;28604;51.204;22.552;2022-11-04T05:05:26;24.35;;;8.43;;
42964;SDS011;28604;51.204;22.552;2022-11-04T05:07:52;19.67;;;9.18;;
42964;SDS011;28604;51.204;22.552;2022-11-04T05:10:19;23.55;;;8.68;;
42964;SDS011;28604;51.204;22.552;2022-11-04T05:12:45;21.63;;;9.77;;
42964;SDS011;28604;51.204;22.552;2022-11-04T05:15:29;24.42;;;9.23;;
42964;SDS011;28604;51.204;22.552;2022-11-04T05:17:57;21.70;;;9.07;;
42964;SDS011;28604;51.204;22.552;2022-11-04T05:20:24;18.42;;;8.57;;
42964;SDS011;28604;51.204;22.552;2022-11-04T05:22:52;25.05;;;8.95;;
42964;SDS011;28604;51.204;22.552;2022-11-04T05:25:18;22.60;;;9.55;;
42964;SDS011;28604;51.204;22.552;2022-11-04T05:27:44;17.65;;;8.90;;
42964;SDS011;28604;51.204;22.552;2022-11-04T05:30:10;24.92;;;8.93;;
42964;SDS011;28604;51.204;22.552;2022-11-04T05:32:36;21.48;;;10.55;;
42964;SDS011;28604;51.204;22.552;2022-11-04T05:35:02;24.63;;;9.25;;
42964;SDS011;28604;51.204;22.552;2022-11-04T05:37:29;28.33;;;9.93;;
42964;SDS011;28604;51.204;22.552;2022-11-04T05:39:54;23.63;;;10.00;;
42964;SDS011;28604;51.204;22.552;2022-11-04T05:42:20;22.42;;;9.30;;
42964;SDS011;28604;51.204;22.552;2022-11-04T05:44:46;19.15;;;9.02;;
42964;SDS011;28604;51.204;22.552;2022-11-04T05:47:12;21.83;;;10.05;;
42964;SDS011;28604;51.204;22.552;2022-11-04T05:49:39;20.95;;;9.88;;
42964;SDS011;28604;51.204;22.552;2022-11-04T05:52:05;25.33;;;9.75;;
42964;SDS011;28604;51.204;22.552;2022-11-04T05:54:30;19.83;;;10.20;;
42964;SDS011;28604;51.204;22.552;2022-11-04T05:56:57;22.15;;;9.48;;
42964;SDS011;28604;51.204;22.552;2022-11-04T05:59:22;23.02;;;9.20;;
42964;SDS011;28604;51.204;22.552;2022-11-04T06:01:48;21.45;;;8.68;;
42964;SDS011;28604;51.204;22.552;2022-11-04T06:04:15;23.30;;;9.40;;
42964;SDS011;28604;51.204;22.552;2022-11-04T06:06:43;23.88;;;8.52;;
42964;SDS011;28604;51.204;22.552;2022-11-04T06:09:09;26.80;;;9.30;;
42964;SDS011;28604;51.204;22.552;2022-11-04T06:11:36;21.10;;;9.10;;
42964;SDS011;28604;51.204;22.552;2022-11-04T06:14:02;22.63;;;9.45;;
42964;SDS011;28604;51.204;22.552;2022-11-04T06:16:29;19.75;;;9.38;;
42964;SDS011;28604;51.204;22.552;2022-11-04T06:18:55;33.03;;;11.15;;
42964;SDS011;28604;51.204;22.552;2022-11-04T06:21:28;17.33;;;9.80;;
42964;SDS011;28604;51.204;22.552;2022-11-04T06:23:56;25.75;;;11.27;;
42964;SDS011;28604;51.204;22.552;2022-11-04T06:26:23;21.88;;;10.50;;
42964;SDS011;28604;51.204;22.552;2022-11-04T06:28:50;21.80;;;11.32;;
42964;SDS011;28604;51.204;22.552;2022-11-04T06:31:16;21.02;;;9.73;;
42964;SDS011;28604;51.204;22.552;2022-11-04T06:33:43;28.08;;;11.23;;
42964;SDS011;28604;51.204;22.552;2022-11-04T06:36:11;22.98;;;10.98;;
42964;SDS011;28604;51.204;22.552;2022-11-04T06:38:38;20.88;;;10.07;;
42964;SDS011;28604;51.204;22.552;2022-11-04T06:41:05;25.38;;;9.82;;
42964;SDS011;28604;51.204;22.552;2022-11-04T06:43:33;21.30;;;9.48;;
42964;SDS011;28604;51.204;22.552;2022-11-04T06:45:59;16.17;;;9.65;;
42964;SDS011;28604;51.204;22.552;2022-11-04T06:48:27;28.40;;;10.32;;
42964;SDS011;28604;51.204;22.552;2022-11-04T06:50:58;27.30;;;9.82;;
42964;SDS011;28604;51.204;22.552;2022-11-04T06:53:25;28.98;;;11.07;;
42964;SDS011;28604;51.204;22.552;2022-11-04T06:55:52;22.88;;;11.23;;
42964;SDS011;28604;51.204;22.552;2022-11-04T06:58:18;18.23;;;9.20;;
42964;SDS011;28604;51.204;22.552;2022-11-04T07:00:51;21.10;;;9.95;;
42964;SDS011;28604;51.204;22.552;2022-11-04T07:03:17;22.00;;;9.45;;
42964;SDS011;28604;51.204;22.552;2022-11-04T07:05:44;22.70;;;9.93;;
42964;SDS011;28604;51.204;22.552;2022-11-04T07:08:09;20.38;;;9.18;;
42964;SDS011;28604;51.204;22.552;2022-11-04T07:10:36;18.17;;;8.82;;
42964;SDS011;28604;51.204;22.552;2022-11-04T07:13:01;22.52;;;8.88;;
42964;SDS011;28604;51.204;22.552;2022-11-04T07:15:27;16.25;;;8.70;;
42964;SDS011;28604;51.204;22.552;2022-11-04T07:17:53;24.45;;;8.85;;
42964;SDS011;28604;51.204;22.552;2022-11-04T07:20:19;18.38;;;9.18;;
42964;SDS011;28604;51.204;22.552;2022-11-04T07:22:45;21.95;;;10.02;;
42964;SDS011;28604;51.204;22.552;2022-11-04T07:25:11;21.70;;;9.68;;
42964;SDS011;28604;51.204;22.552;2022-11-04T07:27:37;25.23;;;10.20;;
42964;SDS011;28604;51.204;22.552;2022-11-04T07:30:04;21.13;;;10.02;;
42964;SDS011;28604;51.204;22.552;2022-11-04T07:32:31;18.17;;;9.55;;
42964;SDS011;28604;51.204;22.552;2022-11-04T07:34:57;20.75;;;9.48;;
42964;SDS011;28604;51.204;22.552;2022-11-04T07:37:23;33.70;;;9.65;;
42964;SDS011;28604;51.204;22.552;2022-11-04T07:39:49;23.08;;;9.52;;
42964;SDS011;28604;51.204;22.552;2022-11-04T07:42:15;17.58;;;9.05;;
42964;SDS011;28604;51.204;22.552;2022-11-04T07:44:41;22.10;;;8.38;;
42964;SDS011;28604;51.204;22.552;2022-11-04T07:47:07;27.88;;;9.52;;
42964;SDS011;28604;51.204;22.552;2022-11-04T07:49:33;20.23;;;9.10;;
42964;SDS011;28604;51.204;22.552;2022-11-04T07:51:58;22.02;;;9.35;;
42964;SDS011;28604;51.204;22.552;2022-11-04T07:54:25;19.38;;;9.00;;
42964;SDS011;28604;51.204;22.552;2022-11-04T07:56:50;20.35;;;8.75;;
42964;SDS011;28604;51.204;22.552;2022-11-04T07:59:16;22.15;;;9.82;;
42964;SDS011;28604;51.204;22.552;2022-11-04T08:01:42;20.65;;;9.57;;
42964;SDS011;28604;51.204;22.552;2022-11-04T08:04:09;17.38;;;8.02;;
42964;SDS011;28604;51.204;22.552;2022-11-04T08:06:35;23.67;;;10.00;;
42964;SDS011;28604;51.204;22.552;2022-11-04T08:09:01;25.70;;;9.02;;
42964;SDS011;28604;51.204;22.552;2022-11-04T08:11:27;20.35;;;8.20;;
42964;SDS011;28604;51.204;22.552;2022-11-04T08:13:54;23.88;;;8.48;;
42964;SDS011;28604;51.204;22.552;2022-11-04T08:16:20;21.80;;;8.55;;
42964;SDS011;28604;51.204;22.552;2022-11-04T08:18:48;23.05;;;9.05;;
42964;SDS011;28604;51.204;22.552;2022-11-04T08:21:17;24.00;;;9.35;;
42964;SDS011;28604;51.204;22.552;2022-11-04T08:23:44;28.17;;;9.90;;
42964;SDS011;28604;51.204;22.552;2022-11-04T08:26:13;18.63;;;8.95;;
42964;SDS011;28604;51.204;22.552;2022-11-04T08:28:42;27.55;;;9.13;;
42964;SDS011;28604;51.204;22.552;2022-11-04T08:31:10;24.55;;;9.05;;
42964;SDS011;28604;51.204;22.552;2022-11-04T08:33:43;17.90;;;9.18;;
42964;SDS011;28604;51.204;22.552;2022-11-04T08:36:11;24.80;;;8.80;;
42964;SDS011;28604;51.204;22.552;2022-11-04T08:38:40;17.90;;;9.05;;
42964;SDS011;28604;51.204;22.552;2022-11-04T08:41:07;22.95;;;9.23;;
42964;SDS011;28604;51.204;22.552;2022-11-04T08:43:34;21.67;;;9.20;;
42964;SDS011;28604;51.204;22.552;2022-11-04T08:46:01;18.98;;;8.93;;
42964;SDS011;28604;51.204;22.552;2022-11-04T08:48:29;13.77;;;7.47;;
42964;SDS011;28604;51.204;22.552;2022-11-04T08:50:55;24.05;;;9.15;;
42964;SDS011;28604;51.204;22.552;2022-11-04T08:53:23;17.45;;;8.43;;
42964;SDS011;28604;51.204;22.552;2022-11-04T08:55:49;24.83;;;8.38;;
42964;SDS011;28604;51.204;22.552;2022-11-04T08:58:16;17.42;;;8.65;;
42964;SDS011;28604;51.204;22.552;2022-11-04T09:00:42;18.00;;;8.70;;
42964;SDS011;28604;51.204;22.552;2022-11-04T09:03:08;22.67;;;8.68;;
42964;SDS011;28604;51.204;22.552;2022-11-04T09:05:38;12.75;;;7.53;;
42964;SDS011;28604;51.204;22.552;2022-11-04T09:08:13;17.40;;;8.27;;
42964;SDS011;28604;51.204;22.552;2022-11-04T09:10:41;19.80;;;7.70;;
42964;SDS011;28604;51.204;22.552;2022-11-04T09:13:11;17.38;;;7.97;;
42964;SDS011;28604;51.204;22.552;2022-11-04T09:15:38;18.83;;;8.63;;
42964;SDS011;28604;51.204;22.552;2022-11-04T09:18:04;19.60;;;8.32;;
42964;SDS011;28604;51.204;22.552;2022-11-04T09:20:30;20.95;;;9.35;;
42964;SDS011;28604;51.204;22.552;2022-11-04T09:22:56;19.15;;;8.65;;
42964;SDS011;28604;51.204;22.552;2022-11-04T09:25:22;18.38;;;7.88;;
42964;SDS011;28604;51.204;22.552;2022-11-04T09:27:48;20.25;;;8.82;;
42964;SDS011;28604;51.204;22.552;2022-11-04T09:30:14;22.63;;;9.18;;
42964;SDS011;28604;51.204;22.552;2022-11-04T09:32:40;20.83;;;8.88;;
42964;SDS011;28604;51.204;22.552;2022-11-04T09:35:06;22.92;;;9.63;;
42964;SDS011;28604;51.204;22.552;2022-11-04T09:37:33;26.58;;;9.40;;
42964;SDS011;28604;51.204;22.552;2022-11-04T09:39:59;23.08;;;9.27;;
42964;SDS011;28604;51.204;22.552;2022-11-04T09:44:58;22.55;;;8.52;;
42964;SDS011;28604;51.204;22.552;2022-11-04T09:47:37;20.13;;;8.98;;
42964;SDS011;28604;51.204;22.552;2022-11-04T09:50:07;19.60;;;9.35;;
42964;SDS011;28604;51.204;22.552;2022-11-04T09:52:42;21.90;;;10.30;;
42964;SDS011;28604;51.204;22.552;2022-11-04T09:58:06;16.45;;;7.95;;
42964;SDS011;28604;51.204;22.552;2022-11-04T10:00:37;26.60;;;9.50;;
42964;SDS011;28604;51.204;22.552;2022-11-04T10:03:13;26.15;;;11.35;;
42964;SDS011;28604;51.204;22.552;2022-11-04T10:06:07;30.85;;;10.90;;
42964;SDS011;28604;51.204;22.552;2022-11-04T10:09:07;21.95;;;9.93;;
42964;SDS011;28604;51.204;22.552;2022-11-04T10:14:18;24.55;;;9.02;;
42964;SDS011;28604;51.204;22.552;2022-11-04T10:17:20;23.95;;;8.85;;
42964;SDS011;28604;51.204;22.552;2022-11-04T10:20:36;17.80;;;8.55;;
42964;SDS011;28604;51.204;22.552;2022-11-04T10:23:19;20.30;;;7.35;;
42964;SDS011;28604;51.204;22.552;2022-11-04T10:25:48;19.10;;;7.93;;
42964;SDS011;28604;51.204;22.552;2022-11-04T10:28:17;13.23;;;6.35;;
42964;SDS011;28604;51.204;22.552;2022-11-04T10:30:46;15.10;;;7.57;;
42964;SDS011;28604;51.204;22.552;2022-11-04T10:33:23;17.95;;;7.97;;
42964;SDS011;28604;51.204;22.552;2022-11-04T10:35:52;16.58;;;7.10;;
42964;SDS011;28604;51.204;22.552;2022-11-04T10:38:31;19.85;;;8.18;;
42964;SDS011;28604;51.204;22.552;2022-11-04T10:41:02;22.90;;;7.63;;
42964;SDS011;28604;51.204;22.552;2022-11-04T10:43:43;16.30;;;8.30;;
42964;SDS011;28604;51.204;22.552;2022-11-04T10:46:53;27.13;;;7.45;;
42964;SDS011;28604;51.204;22.552;2022-11-04T10:52:12;22.17;;;9.60;;
42964;SDS011;28604;51.204;22.552;2022-11-04T10:57:05;15.38;;;7.43;;
42964;SDS011;28604;51.204;22.552;2022-11-04T11:05:20;15.30;;;7.95;;
42964;SDS011;28604;51.204;22.552;2022-11-04T11:07:52;16.30;;;7.18;;
42964;SDS011;28604;51.204;22.552;2022-11-04T11:10:26;12.45;;;6.93;;
42964;SDS011;28604;51.204;22.552;2022-11-04T11:12:59;17.83;;;9.15;;
42964;SDS011;28604;51.204;22.552;2022-11-04T11:15:34;15.10;;;8.20;;
42964;SDS011;28604;51.204;22.552;2022-11-04T11:20:37;16.85;;;6.72;;
42964;SDS011;28604;51.204;22.552;2022-11-04T11:23:08;16.95;;;5.80;;
42964;SDS011;28604;51.204;22.552;2022-11-04T11:25:57;19.88;;;7.55;;
42964;SDS011;28604;51.204;22.552;2022-11-04T11:28:24;13.43;;;6.80;;
42964;SDS011;28604;51.204;22.552;2022-11-04T11:30:55;17.25;;;6.82;;
42964;SDS011;28604;51.204;22.552;2022-11-04T11:33:33;24.30;;;7.75;;
42964;SDS011;28604;51.204;22.552;2022-11-04T11:36:15;20.63;;;7.75;;
42964;SDS011;28604;51.204;22.552;2022-11-04T11:41:53;19.27;;;8.43;;
42964;SDS011;28604;51.204;22.552;2022-11-04T11:44:31;14.98;;;7.57;;
42964;SDS011;28604;51.204;22.552;2022-11-04T11:52:41;15.32;;;7.05;;
42964;SDS011;28604;51.204;22.552;2022-11-04T11:57:52;22.35;;;7.90;;
42964;SDS011;28604;51.204;22.552;2022-11-04T12:00:33;20.52;;;9.13;;
42964;SDS011;28604;51.204;22.552;2022-11-04T12:08:54;21.55;;;10.02;;
42964;SDS011;28604;51.204;22.552;2022-11-04T12:11:33;19.02;;;8.73;;
42964;SDS011;28604;51.204;22.552;2022-11-04T12:16:43;14.85;;;7.13;;
42964;SDS011;28604;51.204;22.552;2022-11-04T12:21:58;20.65;;;7.55;;
42964;SDS011;28604;51.204;22.552;2022-11-04T12:24:43;16.55;;;6.63;;
42964;SDS011;28604;51.204;22.552;2022-11-04T12:27:28;16.13;;;6.45;;
42964;SDS011;28604;51.204;22.552;2022-11-04T12:33:08;12.55;;;6.85;;
42964;SDS011;28604;51.204;22.552;2022-11-04T12:49:46;15.32;;;7.10;;
42964;SDS011;28604;51.204;22.552;2022-11-04T12:55:21;17.55;;;6.72;;
42964;SDS011;28604;51.204;22.552;2022-11-04T12:58:15;14.43;;;6.78;;
42964;SDS011;28604;51.204;22.552;2022-11-04T13:00:47;16.90;;;6.75;;
42964;SDS011;28604;51.204;22.552;2022-11-04T13:06:45;17.92;;;7.65;;
42964;SDS011;28604;51.204;22.552;2022-11-04T13:11:53;20.63;;;8.13;;
42964;SDS011;28604;51.204;22.552;2022-11-04T13:14:23;15.40;;;7.65;;
42964;SDS011;28604;51.204;22.552;2022-11-04T13:16:55;23.15;;;9.23;;
42964;SDS011;28604;51.204;22.552;2022-11-04T13:19:38;25.92;;;10.10;;
42964;SDS011;28604;51.204;22.552;2022-11-04T13:22:15;23.42;;;10.85;;
42964;SDS011;28604;51.204;22.552;2022-11-04T13:25:43;22.48;;;9.98;;
42964;SDS011;28604;51.204;22.552;2022-11-04T13:28:14;26.38;;;11.57;;
42964;SDS011;28604;51.204;22.552;2022-11-04T13:39:05;25.92;;;12.70;;
42964;SDS011;28604;51.204;22.552;2022-11-04T13:44:42;22.92;;;10.23;;
42964;SDS011;28604;51.204;22.552;2022-11-04T13:47:12;22.60;;;10.30;;
42964;SDS011;28604;51.204;22.552;2022-11-04T13:49:49;25.15;;;10.60;;
42964;SDS011;28604;51.204;22.552;2022-11-04T13:52:16;27.80;;;12.10;;
42964;SDS011;28604;51.204;22.552;2022-11-04T13:54:44;26.23;;;11.45;;
42964;SDS011;28604;51.204;22.552;2022-11-04T13:57:23;22.80;;;12.00;;
42964;SDS011;28604;51.204;22.552;2022-11-04T14:00:06;26.00;;;11.13;;
42964;SDS011;28604;51.204;22.552;2022-11-04T14:02:36;31.42;;;11.85;;
42964;SDS011;28604;51.204;22.552;2022-11-04T14:15:58;22.13;;;11.13;;
42964;SDS011;28604;51.204;22.552;2022-11-04T14:18:35;29.10;;;10.93;;
42964;SDS011;28604;51.204;22.552;2022-11-04T14:21:13;27.27;;;12.35;;
42964;SDS011;28604;51.204;22.552;2022-11-04T14:23:46;26.77;;;12.07;;
42964;SDS011;28604;51.204;22.552;2022-11-04T14:26:16;28.02;;;12.88;;
42964;SDS011;28604;51.204;22.552;2022-11-04T14:28:48;27.85;;;12.32;;
42964;SDS011;28604;51.204;22.552;2022-11-04T14:31:38;24.43;;;12.10;;
42964;SDS011;28604;51.204;22.552;2022-11-04T14:34:15;34.13;;;12.80;;
42964;SDS011;28604;51.204;22.552;2022-11-04T14:36:48;30.80;;;12.55;;
42964;SDS011;28604;51.204;22.552;2022-11-04T14:39:27;30.70;;;13.82;;
42964;SDS011;28604;51.204;22.552;2022-11-04T14:42:07;29.52;;;14.30;;
42964;SDS011;28604;51.204;22.552;2022-11-04T14:44:41;33.72;;;12.52;;
42964;SDS011;28604;51.204;22.552;2022-11-04T14:47:20;32.42;;;14.57;;
42964;SDS011;28604;51.204;22.552;2022-11-04T14:52:32;26.65;;;13.07;;
42964;SDS011;28604;51.204;22.552;2022-11-04T14:57:39;34.55;;;15.68;;
42964;SDS011;28604;51.204;22.552;2022-11-04T15:03:09;31.80;;;14.15;;
42964;SDS011;28604;51.204;22.552;2022-11-04T15:05:46;29.70;;;14.45;;
42964;SDS011;28604;51.204;22.552;2022-11-04T15:13:32;34.95;;;12.68;;
42964;SDS011;28604;51.204;22.552;2022-11-04T15:18:58;31.38;;;13.43;;
42964;SDS011;28604;51.204;22.552;2022-11-04T15:21:24;26.25;;;12.73;;
42964;SDS011;28604;51.204;22.552;2022-11-04T15:23:51;25.38;;;13.50;;
42964;SDS011;28604;51.204;22.552;2022-11-04T15:26:19;29.67;;;12.73;;
42964;SDS011;28604;51.204;22.552;2022-11-04T15:28:48;28.33;;;14.20;;
42964;SDS011;28604;51.204;22.552;2022-11-04T15:31:17;23.80;;;13.40;;
42964;SDS011;28604;51.204;22.552;2022-11-04T15:33:48;30.25;;;13.13;;
42964;SDS011;28604;51.204;22.552;2022-11-04T15:36:20;28.75;;;13.98;;
42964;SDS011;28604;51.204;22.552;2022-11-04T15:39:01;25.85;;;14.25;;
42964;SDS011;28604;51.204;22.552;2022-11-04T15:41:37;33.72;;;15.88;;
42964;SDS011;28604;51.204;22.552;2022-11-04T15:44:25;37.15;;;15.63;;
42964;SDS011;28604;51.204;22.552;2022-11-04T15:46:57;33.95;;;17.63;;
42964;SDS011;28604;51.204;22.552;2022-11-04T15:49:29;35.92;;;15.80;;
42964;SDS011;28604;51.204;22.552;2022-11-04T15:52:04;32.65;;;16.50;;
42964;SDS011;28604;51.204;22.552;2022-11-04T15:54:42;39.15;;;17.30;;
42964;SDS011;28604;51.204;22.552;2022-11-04T15:57:21;36.33;;;16.75;;
42964;SDS011;28604;51.204;22.552;2022-11-04T16:02:50;37.80;;;17.58;;
42964;SDS011;28604;51.204;22.552;2022-11-04T16:05:28;39.05;;;18.48;;
42964;SDS011;28604;51.204;22.552;2022-11-04T16:07:54;51.78;;;20.52;;
42964;SDS011;28604;51.204;22.552;2022-11-04T16:10:38;44.33;;;20.15;;
42964;SDS011;28604;51.204;22.552;2022-11-04T16:18:21;44.33;;;19.92;;
42964;SDS011;28604;51.204;22.552;2022-11-04T16:20:51;44.30;;;21.13;;
42964;SDS011;28604;51.204;22.552;2022-11-04T16:23:25;41.97;;;20.40;;
42964;SDS011;28604;51.204;22.552;2022-11-04T16:25:57;44.78;;;21.70;;
42964;SDS011;28604;51.204;22.552;2022-11-04T16:28:35;50.97;;;23.58;;
42964;SDS011;28604;51.204;22.552;2022-11-04T16:31:07;45.25;;;22.13;;
42964;SDS011;28604;51.204;22.552;2022-11-04T16:33:49;46.95;;;22.13;;
42964;SDS011;28604;51.204;22.552;2022-11-04T16:36:15;45.47;;;22.63;;
42964;SDS011;28604;51.204;22.552;2022-11-04T16:39:00;41.72;;;19.40;;
42964;SDS011;28604;51.204;22.552;2022-11-04T16:44:30;45.60;;;20.85;;
42964;SDS011;28604;51.204;22.552;2022-11-04T16:46:56;48.50;;;23.35;;
42964;SDS011;28604;51.204;22.552;2022-11-04T16:49:25;50.95;;;23.27;;
42964;SDS011;28604;51.204;22.552;2022-11-04T16:51:54;49.13;;;22.83;;
42964;SDS011;28604;51.204;22.552;2022-11-04T16:54:26;47.78;;;20.60;;
42964;SDS011;28604;51.204;22.552;2022-11-04T16:56:53;56.17;;;21.73;;
42964;SDS011;28604;51.204;22.552;2022-11-04T16:59:20;48.90;;;22.05;;
42964;SDS011;28604;51.204;22.552;2022-11-04T17:01:46;45.78;;;21.20;;
42964;SDS011;28604;51.204;22.552;2022-11-04T17:04:12;48.80;;;20.92;;
42964;SDS011;28604;51.204;22.552;2022-11-04T17:06:38;46.85;;;21.35;;
42964;SDS011;28604;51.204;22.552;2022-11-04T17:09:16;41.53;;;18.85;;
42964;SDS011;28604;51.204;22.552;2022-11-04T17:11:47;42.60;;;20.08;;
42964;SDS011;28604;51.204;22.552;2022-11-04T17:14:13;45.50;;;20.60;;
42964;SDS011;28604;51.204;22.552;2022-11-04T17:16:41;43.72;;;20.80;;
42964;SDS011;28604;51.204;22.552;2022-11-04T17:19:09;43.25;;;19.50;;
42964;SDS011;28604;51.204;22.552;2022-11-04T17:21:39;52.47;;;20.77;;
42964;SDS011;28604;51.204;22.552;2022-11-04T17:24:05;44.60;;;20.77;;
42964;SDS011;28604;51.204;22.552;2022-11-04T17:26:31;45.05;;;21.23;;
42964;SDS011;28604;51.204;22.552;2022-11-04T17:28:58;56.47;;;27.95;;